createdAt,value
2019-03-11T00:01:33.335Z,36.10
2019-03-11T00:04:04.125Z,36.40
2019-03-11T00:06:34.707Z,36.60
2019-03-11T00:09:06.716Z,36.90
2019-03-11T00:11:38.929Z,36.90
2019-03-11T00:14:09.433Z,36.80
2019-03-11T00:16:40.024Z,36.70
2019-03-11T00:19:10.529Z,36.50
2019-03-11T00:21:41.138Z,36.60
2019-03-11T00:24:11.627Z,36.50
2019-03-11T00:26:42.084Z,36.50
2019-03-11T00:29:12.492Z,36.40
2019-03-11T00:31:43.160Z,36.00
2019-03-11T00:34:13.529Z,36.10
2019-03-11T00:36:44.132Z,36.20
2019-03-11T00:39:14.640Z,36.20
2019-03-11T00:41:45.053Z,36.20
2019-03-11T00:44:15.529Z,36.00
2019-03-11T00:46:45.922Z,36.00
2019-03-11T00:49:16.420Z,36.10
2019-03-11T00:51:46.813Z,36.10
2019-03-11T00:54:17.198Z,36.00
2019-03-11T00:56:47.665Z,36.10
2019-03-11T00:59:18.184Z,36.20
2019-03-11T01:01:48.573Z,36.20
2019-03-11T01:04:19.189Z,36.30
2019-03-11T01:06:49.753Z,36.30
2019-03-11T01:09:20.436Z,36.40
2019-03-11T01:11:50.977Z,36.60
2019-03-11T01:14:21.586Z,36.60
2019-03-11T01:16:52.235Z,36.80
2019-03-11T01:19:23.947Z,37.00
2019-03-11T01:21:54.521Z,37.00
2019-03-11T01:24:25.204Z,37.10
2019-03-11T01:26:55.742Z,37.20
2019-03-11T01:29:26.371Z,37.20
2019-03-11T01:31:56.852Z,37.20
2019-03-11T01:34:27.302Z,37.40
2019-03-11T01:36:59.073Z,37.30
2019-03-11T01:39:29.544Z,37.20
2019-03-11T01:41:59.929Z,37.30
2019-03-11T01:44:30.584Z,37.10
2019-03-11T01:47:01.033Z,37.00
2019-03-11T01:49:31.597Z,37.10
2019-03-11T01:52:02.208Z,36.70
2019-03-11T01:54:32.694Z,36.80
2019-03-11T01:57:03.301Z,37.00
2019-03-11T01:59:33.797Z,37.20
2019-03-11T02:02:04.282Z,37.20
2019-03-11T02:04:35.939Z,37.30
2019-03-11T02:07:06.385Z,37.30
2019-03-11T02:09:36.826Z,37.30
2019-03-11T02:12:07.616Z,37.40
2019-03-11T02:14:38.130Z,37.50
2019-03-11T02:17:08.564Z,37.50
2019-03-11T02:19:39.106Z,37.30
2019-03-11T02:22:09.646Z,37.20
2019-03-11T02:24:40.034Z,37.20
2019-03-11T02:27:10.588Z,37.40
2019-03-11T02:29:41.128Z,37.30
2019-03-11T02:32:11.661Z,37.20
2019-03-11T02:34:42.376Z,37.00
2019-03-11T02:37:12.923Z,37.10
2019-03-11T02:39:43.453Z,37.10
2019-03-11T02:42:13.968Z,37.20
2019-03-11T02:44:44.418Z,37.20
2019-03-11T02:47:14.912Z,37.20
2019-03-11T02:49:45.432Z,37.10
2019-03-11T02:52:15.892Z,37.20
2019-03-11T02:54:46.388Z,37.10
2019-03-11T02:57:16.909Z,37.10
2019-03-11T02:59:47.397Z,37.10
2019-03-11T03:02:30.574Z,37.10
2019-03-11T03:05:20.773Z,37.20
2019-03-11T03:07:51.347Z,37.20
2019-03-11T03:10:21.866Z,37.20
2019-03-11T03:12:52.465Z,37.10
2019-03-11T03:15:22.956Z,37.20
2019-03-11T03:17:53.560Z,37.20
2019-03-11T03:20:24.089Z,37.20
2019-03-11T03:22:54.453Z,37.20
2019-03-11T03:25:33.831Z,37.20
2019-03-11T03:27:57.477Z,37.20
2019-03-11T03:30:28.054Z,37.00
2019-03-11T03:32:58.590Z,36.70
2019-03-11T03:35:29.145Z,36.70
2019-03-11T03:37:59.575Z,36.60
2019-03-11T03:40:30.110Z,36.50
2019-03-11T03:43:00.888Z,36.60
2019-03-11T03:45:33.871Z,36.30
2019-03-11T03:48:04.448Z,36.00
2019-03-11T03:50:37.161Z,35.80
2019-03-11T03:53:08.382Z,35.60
2019-03-11T03:55:38.803Z,35.50
2019-03-11T03:58:09.412Z,35.40
2019-03-11T04:00:39.887Z,34.90
2019-03-11T04:03:10.456Z,34.70
2019-03-11T04:05:40.973Z,34.20
2019-03-11T04:08:11.534Z,34.50
2019-03-11T04:10:42.164Z,34.50
2019-03-11T04:13:12.864Z,34.60
2019-03-11T04:15:43.397Z,34.60
2019-03-11T04:18:14.079Z,34.80
2019-03-11T04:20:44.678Z,34.70
2019-03-11T04:23:15.189Z,34.90
2019-03-11T04:25:45.843Z,34.90
2019-03-11T04:28:16.369Z,34.90
2019-03-11T04:30:47.022Z,35.00
2019-03-11T04:33:17.600Z,35.10
2019-03-11T04:35:48.021Z,35.70
2019-03-11T04:38:18.484Z,34.80
2019-03-11T04:40:49.001Z,34.90
2019-03-11T04:43:19.404Z,35.00
2019-03-11T04:45:49.936Z,35.00
2019-03-11T04:48:20.451Z,34.90
2019-03-11T04:50:50.929Z,34.70
2019-03-11T04:53:22.603Z,34.90
2019-03-11T04:55:53.045Z,34.90
2019-03-11T04:58:23.564Z,34.90
2019-03-11T05:00:54.062Z,34.90
2019-03-11T05:03:25.281Z,34.80
2019-03-11T05:05:55.792Z,34.80
2019-03-11T05:08:26.312Z,34.70
2019-03-11T05:10:57.993Z,34.60
2019-03-11T05:13:28.560Z,34.70
2019-03-11T05:15:58.961Z,34.80
2019-03-11T05:18:29.454Z,34.90
2019-03-11T05:20:59.840Z,35.00
2019-03-11T05:23:30.234Z,35.00
2019-03-11T05:26:00.732Z,35.10
2019-03-11T05:28:31.180Z,35.20
2019-03-11T05:31:01.615Z,35.10
2019-03-11T05:33:32.157Z,35.20
2019-03-11T05:36:02.623Z,35.20
2019-03-11T05:38:33.236Z,35.20
2019-03-11T05:41:03.765Z,35.20
2019-03-11T05:43:34.317Z,35.90
2019-03-11T05:46:04.921Z,35.30
2019-03-11T05:48:35.441Z,35.30
2019-03-11T05:51:05.986Z,35.20
2019-03-11T05:53:36.532Z,35.20
2019-03-11T05:56:06.961Z,35.10
2019-03-11T05:58:37.414Z,35.30
2019-03-11T06:01:07.990Z,35.30
2019-03-11T06:03:38.496Z,35.50
2019-03-11T06:06:09.050Z,35.50
2019-03-11T06:08:39.473Z,35.50
2019-03-11T06:11:09.954Z,35.50
2019-03-11T06:13:40.541Z,35.50
2019-03-11T06:16:11.077Z,35.60
2019-03-11T06:18:47.004Z,35.40
2019-03-11T06:21:32.162Z,35.50
2019-03-11T06:24:02.657Z,35.60
2019-03-11T06:26:33.216Z,35.30
2019-03-11T06:29:03.665Z,35.20
2019-03-11T06:31:34.200Z,35.10
2019-03-11T06:34:04.805Z,35.10
2019-03-11T06:36:35.827Z,35.70
2019-03-11T06:39:08.180Z,37.10
2019-03-11T06:41:38.624Z,36.40
2019-03-11T06:44:09.019Z,35.90
2019-03-11T06:46:39.461Z,35.80
2019-03-11T06:49:10.004Z,36.00
2019-03-11T06:51:40.507Z,35.60
2019-03-11T06:54:10.990Z,35.00
2019-03-11T06:56:41.608Z,35.60
2019-03-11T06:59:12.239Z,35.70
2019-03-11T07:01:42.732Z,35.80
2019-03-11T07:04:13.109Z,35.90
2019-03-11T07:06:43.551Z,35.90
2019-03-11T07:09:14.164Z,36.00
2019-03-11T07:11:44.755Z,36.10
2019-03-11T07:14:15.284Z,36.20
2019-03-11T07:16:45.675Z,36.90
2019-03-11T07:19:16.333Z,36.50
2019-03-11T07:21:46.825Z,36.60
2019-03-11T07:24:17.459Z,36.60
2019-03-11T07:26:47.893Z,36.80
2019-03-11T07:29:18.414Z,36.90
2019-03-11T07:31:48.883Z,37.00
2019-03-11T07:34:19.491Z,37.00
2019-03-11T07:36:49.982Z,37.10
2019-03-11T07:39:20.465Z,37.20
2019-03-11T07:41:50.971Z,37.30
2019-03-11T07:44:21.499Z,37.30
2019-03-11T07:46:52.082Z,37.40
2019-03-11T07:49:22.739Z,37.30
2019-03-11T07:51:53.149Z,37.20
2019-03-11T07:54:23.825Z,37.00
2019-03-11T07:56:54.357Z,36.70
2019-03-11T07:59:25.068Z,37.60
2019-03-11T08:01:55.589Z,37.00
2019-03-11T08:04:26.231Z,36.90
2019-03-11T08:06:56.774Z,36.80
2019-03-11T08:09:37.322Z,36.70
2019-03-11T08:11:59.511Z,36.60
2019-03-11T08:14:30.185Z,36.50
2019-03-11T08:17:00.862Z,36.50
2019-03-11T08:19:31.414Z,36.70
2019-03-11T08:22:01.923Z,36.70
2019-03-11T08:24:32.450Z,36.70
2019-03-11T08:27:02.925Z,36.40
2019-03-11T08:29:33.622Z,36.10
2019-03-11T08:32:04.264Z,36.10
2019-03-11T08:34:34.965Z,36.10
2019-03-11T08:37:05.484Z,36.00
2019-03-11T08:39:35.994Z,35.80
2019-03-11T08:42:06.472Z,35.50
2019-03-11T08:44:36.997Z,35.50
2019-03-11T08:47:07.763Z,35.60
2019-03-11T08:49:38.390Z,35.70
2019-03-11T08:52:08.895Z,35.60
2019-03-11T08:54:39.500Z,35.50
2019-03-11T08:57:09.993Z,35.50
2019-03-11T08:59:40.496Z,35.60
2019-03-11T09:02:11.023Z,35.50
2019-03-11T09:04:41.504Z,35.50
2019-03-11T09:07:11.934Z,35.50
2019-03-11T09:09:42.413Z,35.50
2019-03-11T09:12:12.891Z,35.50
2019-03-11T09:14:43.443Z,35.50
2019-03-11T09:17:13.987Z,36.00
2019-03-11T09:19:44.453Z,35.40
2019-03-11T09:22:16.001Z,35.30
2019-03-11T09:24:46.634Z,35.40
2019-03-11T09:27:17.110Z,35.50
2019-03-11T09:29:47.636Z,35.60
2019-03-11T09:32:19.431Z,35.60
2019-03-11T09:34:50.450Z,35.70
2019-03-11T09:37:21.044Z,35.90
2019-03-11T09:39:51.620Z,35.90
2019-03-11T09:42:22.260Z,36.00
2019-03-11T09:44:52.726Z,36.20
2019-03-11T09:47:23.173Z,36.20
2019-03-11T09:49:53.670Z,36.20
2019-03-11T09:52:24.198Z,36.40
2019-03-11T09:54:54.802Z,36.20
2019-03-11T09:57:25.341Z,36.20
2019-03-11T09:59:55.916Z,35.80
2019-03-11T10:02:26.456Z,35.80
2019-03-11T10:04:56.904Z,35.90
2019-03-11T10:07:27.296Z,35.80
2019-03-11T10:09:57.893Z,35.70
2019-03-11T10:12:28.365Z,35.50
2019-03-11T10:14:58.902Z,35.60
2019-03-11T10:17:29.557Z,35.60
2019-03-11T10:20:00.342Z,35.70
2019-03-11T10:22:31.099Z,35.50
2019-03-11T10:25:01.694Z,35.40
2019-03-11T10:27:32.449Z,35.50
2019-03-11T10:30:03.053Z,35.40
2019-03-11T10:32:35.010Z,35.30
2019-03-11T10:35:06.856Z,35.40
2019-03-11T10:37:37.357Z,35.40
2019-03-11T10:40:09.701Z,35.50
2019-03-11T10:42:40.229Z,35.90
2019-03-11T10:45:11.661Z,36.20
2019-03-11T10:47:42.144Z,36.30
2019-03-11T10:50:12.928Z,36.50
2019-03-11T10:52:43.543Z,36.40
2019-03-11T10:55:14.261Z,36.20
2019-03-11T10:57:44.872Z,35.50
2019-03-11T11:00:17.878Z,34.80
2019-03-11T11:02:48.390Z,34.20
2019-03-11T11:05:19.050Z,33.80
2019-03-11T11:07:50.811Z,33.40
2019-03-11T11:10:21.643Z,33.00
2019-03-11T11:12:52.169Z,32.70
2019-03-11T11:15:23.057Z,32.60
2019-03-11T11:17:53.916Z,32.30
2019-03-11T11:20:24.554Z,32.10
2019-03-11T11:22:56.064Z,31.90
2019-03-11T11:25:26.634Z,32.00
2019-03-11T11:27:57.268Z,32.00
2019-03-11T11:30:27.866Z,32.70
2019-03-11T11:32:58.601Z,33.00
2019-03-11T11:35:29.165Z,33.40
2019-03-11T11:37:59.703Z,34.60
2019-03-11T11:40:30.389Z,34.40
2019-03-11T11:43:00.972Z,35.00
2019-03-11T11:45:31.577Z,35.50
2019-03-11T11:48:03.855Z,36.00
2019-03-11T11:50:34.340Z,36.30
2019-03-11T11:53:04.785Z,36.50
2019-03-11T11:55:35.325Z,36.80
2019-03-11T11:58:06.045Z,37.20
2019-03-11T12:00:37.805Z,37.50
2019-03-11T12:03:08.316Z,37.80
2019-03-11T12:05:40.491Z,38.20
2019-03-11T12:08:11.032Z,38.50
2019-03-11T12:10:41.471Z,38.60
2019-03-11T12:13:12.080Z,38.90
2019-03-11T12:15:44.238Z,39.20
2019-03-11T12:18:15.944Z,39.60
2019-03-11T12:20:47.380Z,39.60
2019-03-11T12:23:17.928Z,40.20
2019-03-11T12:25:48.551Z,40.20
2019-03-11T12:28:20.158Z,40.60
2019-03-11T12:30:50.832Z,40.80
2019-03-11T12:33:21.463Z,41.60
2019-03-11T12:35:52.323Z,41.70
2019-03-11T12:38:22.895Z,42.90
2019-03-11T12:40:53.474Z,42.80
2019-03-11T12:43:24.159Z,42.40
2019-03-11T12:45:54.746Z,42.40
2019-03-11T12:48:25.385Z,42.20
2019-03-11T12:50:55.902Z,42.40
2019-03-11T12:53:26.509Z,42.50
2019-03-11T12:55:57.035Z,42.80
2019-03-11T12:58:29.224Z,43.10
2019-03-11T13:00:59.664Z,43.50
2019-03-11T13:03:30.316Z,43.70
2019-03-11T13:06:00.777Z,43.90
2019-03-11T13:08:31.310Z,44.10
2019-03-11T13:11:02.199Z,44.20
2019-03-11T13:13:32.772Z,44.40
2019-03-11T13:16:03.481Z,44.20
2019-03-11T13:18:40.588Z,44.20
2019-03-11T13:21:26.142Z,44.30
2019-03-11T13:23:56.637Z,44.10
2019-03-11T13:26:27.200Z,43.80
2019-03-11T13:28:57.933Z,43.60
2019-03-11T13:31:28.516Z,43.40
2019-03-11T13:33:59.021Z,43.00
2019-03-11T13:36:29.476Z,42.70
2019-03-11T13:38:59.980Z,42.40
2019-03-11T13:41:32.029Z,42.30
2019-03-11T13:44:02.445Z,42.20
2019-03-11T13:46:32.904Z,42.10
2019-03-11T13:49:03.490Z,41.80
2019-03-11T13:51:34.037Z,41.60
2019-03-11T13:54:05.394Z,41.60
2019-03-11T13:56:35.917Z,41.40
2019-03-11T13:59:06.457Z,41.20
2019-03-11T14:01:36.998Z,41.10
2019-03-11T14:04:07.478Z,40.90
2019-03-11T14:06:38.077Z,40.90
2019-03-11T14:09:08.953Z,40.90
2019-03-11T14:11:40.969Z,40.80
2019-03-11T14:14:11.503Z,40.70
2019-03-11T14:16:41.981Z,40.50
2019-03-11T14:19:13.039Z,40.50
2019-03-11T14:21:43.717Z,40.40
2019-03-11T14:24:16.073Z,40.40
2019-03-11T14:26:46.613Z,40.30
2019-03-11T14:29:17.012Z,40.30
2019-03-11T14:31:47.634Z,40.20
2019-03-11T14:34:18.194Z,40.20
2019-03-11T14:36:48.843Z,40.10
2019-03-11T14:39:19.499Z,40.10
2019-03-11T14:41:50.214Z,40.20
2019-03-11T14:44:20.729Z,40.10
2019-03-11T14:46:51.212Z,40.20
2019-03-11T14:49:21.937Z,40.10
2019-03-11T14:51:52.416Z,39.90
2019-03-11T14:54:22.862Z,40.00
2019-03-11T14:56:53.466Z,40.00
2019-03-11T14:59:24.177Z,40.00
2019-03-11T15:01:54.680Z,40.10
2019-03-11T15:04:26.129Z,40.10
2019-03-11T15:06:56.574Z,40.10
2019-03-11T15:09:27.414Z,40.10
2019-03-11T15:11:57.943Z,40.00
2019-03-11T15:14:28.496Z,39.90
2019-03-11T15:16:58.950Z,40.50
2019-03-11T15:19:29.508Z,39.80
2019-03-11T15:21:59.865Z,39.70
2019-03-11T15:24:30.384Z,39.80
2019-03-11T15:27:00.816Z,39.70
2019-03-11T15:29:31.403Z,39.50
2019-03-11T15:32:01.985Z,39.50
2019-03-11T15:34:32.550Z,39.50
2019-03-11T15:37:03.089Z,39.50
2019-03-11T15:39:33.649Z,39.60
2019-03-11T15:42:04.157Z,39.40
2019-03-11T15:44:34.984Z,39.30
2019-03-11T15:47:05.472Z,39.40
2019-03-11T15:49:36.167Z,39.30
2019-03-11T15:52:06.730Z,39.10
2019-03-11T15:54:37.236Z,39.00
2019-03-11T15:57:07.911Z,38.90
2019-03-11T15:59:38.518Z,38.90
2019-03-11T16:02:10.569Z,39.00
2019-03-11T16:04:41.422Z,39.00
2019-03-11T16:07:11.862Z,39.00
2019-03-11T16:09:42.515Z,38.50
2019-03-11T16:12:12.987Z,39.10
2019-03-11T16:14:49.174Z,39.10
2019-03-11T16:17:16.024Z,39.20
2019-03-11T16:19:46.620Z,39.20
2019-03-11T16:22:23.367Z,39.20
2019-03-11T16:24:49.338Z,39.30
2019-03-11T16:27:20.047Z,39.80
2019-03-11T16:29:51.643Z,39.10
2019-03-11T16:32:22.148Z,39.10
2019-03-11T16:34:53.799Z,39.10
2019-03-11T16:37:24.456Z,39.20
2019-03-11T16:39:55.028Z,39.30
2019-03-11T16:42:27.157Z,39.40
2019-03-11T16:44:57.750Z,39.50
2019-03-11T16:47:28.393Z,39.40
2019-03-11T16:49:58.837Z,39.50
2019-03-11T16:52:29.362Z,39.40
2019-03-11T16:54:59.956Z,39.50
2019-03-11T16:57:30.432Z,39.50
2019-03-11T17:00:00.905Z,39.50
2019-03-11T17:02:32.100Z,39.60
2019-03-11T17:05:02.687Z,39.60
2019-03-11T17:07:34.986Z,39.70
2019-03-11T17:10:05.903Z,39.80
2019-03-11T17:12:36.452Z,39.80
2019-03-11T17:15:07.851Z,39.80
2019-03-11T17:17:38.733Z,39.80
2019-03-11T17:20:10.497Z,39.80
2019-03-11T17:22:42.136Z,39.90
2019-03-11T17:25:13.074Z,39.90
2019-03-11T17:27:43.708Z,39.80
2019-03-11T17:30:15.853Z,39.90
2019-03-11T17:32:46.532Z,39.90
2019-03-11T17:35:17.290Z,39.80
2019-03-11T17:37:48.055Z,39.90
2019-03-11T17:40:18.953Z,39.90
2019-03-11T17:42:49.750Z,39.90
2019-03-11T17:45:20.428Z,39.90
2019-03-11T17:47:51.195Z,40.00
2019-03-11T17:50:22.085Z,40.00
2019-03-11T17:52:52.868Z,40.00
2019-03-11T17:55:23.446Z,40.20
2019-03-11T17:57:53.929Z,40.20
2019-03-11T18:00:26.551Z,40.20
2019-03-11T18:02:57.078Z,40.20
2019-03-11T18:05:27.551Z,40.30
2019-03-11T18:07:58.252Z,40.30
2019-03-11T18:10:28.793Z,40.40
2019-03-11T18:12:59.296Z,40.40
2019-03-11T18:15:29.792Z,40.40
2019-03-11T18:18:00.381Z,40.40
2019-03-11T18:20:30.821Z,40.40
2019-03-11T18:23:01.389Z,40.40
2019-03-11T18:25:32.045Z,40.40
2019-03-11T18:28:02.753Z,40.40
2019-03-11T18:30:33.870Z,40.40
2019-03-11T18:33:04.564Z,40.50
2019-03-11T18:35:35.203Z,40.50
2019-03-11T18:38:05.833Z,40.60
2019-03-11T18:40:36.215Z,40.60
2019-03-11T18:43:06.807Z,40.60
2019-03-11T18:45:37.291Z,40.50
2019-03-11T18:48:07.832Z,40.60
2019-03-11T18:50:38.460Z,40.70
2019-03-11T18:53:09.018Z,40.60
2019-03-11T18:55:39.954Z,40.50
2019-03-11T18:58:10.567Z,40.50
2019-03-11T19:00:41.125Z,40.70
2019-03-11T19:03:11.754Z,40.70
2019-03-11T19:05:42.599Z,40.90
2019-03-11T19:08:13.131Z,41.00
2019-03-11T19:10:43.665Z,41.20
2019-03-11T19:13:14.338Z,41.30
2019-03-11T19:15:45.196Z,41.50
2019-03-11T19:18:15.768Z,41.60
2019-03-11T19:20:46.252Z,41.70
2019-03-11T19:23:18.437Z,41.70
2019-03-11T19:25:49.028Z,41.90
2019-03-11T19:28:19.742Z,42.00
2019-03-11T19:30:50.465Z,42.10
2019-03-11T19:33:21.325Z,42.10
2019-03-11T19:35:51.894Z,42.20
2019-03-11T19:38:22.438Z,42.30
2019-03-11T19:40:53.644Z,42.20
2019-03-11T19:43:24.292Z,42.40
2019-03-11T19:46:13.806Z,42.40
2019-03-11T19:48:44.382Z,42.40
2019-03-11T19:51:15.123Z,42.50
2019-03-11T19:53:46.161Z,42.50
2019-03-11T19:56:16.780Z,42.60
2019-03-11T19:58:47.712Z,42.60
2019-03-11T20:01:18.290Z,42.50
2019-03-11T20:03:49.037Z,42.50
2019-03-11T20:06:19.817Z,42.80
2019-03-11T20:08:50.301Z,42.60
2019-03-11T20:11:21.084Z,42.60
2019-03-11T20:13:53.157Z,43.30
2019-03-11T20:16:23.759Z,42.70
2019-03-11T20:18:54.412Z,42.80
2019-03-11T20:21:25.959Z,42.80
2019-03-11T20:23:56.708Z,42.80
2019-03-11T20:26:28.380Z,42.90
2019-03-11T20:28:59.074Z,43.00
2019-03-11T20:31:29.682Z,43.00
2019-03-11T20:34:00.298Z,43.10
2019-03-11T20:36:32.049Z,43.10
2019-03-11T20:39:02.947Z,43.20
2019-03-11T20:41:35.079Z,43.30
2019-03-11T20:44:05.863Z,43.20
2019-03-11T20:46:36.417Z,44.10
2019-03-11T20:49:06.926Z,43.30
2019-03-11T20:51:37.782Z,43.50
2019-03-11T20:54:08.323Z,43.40
2019-03-11T20:56:38.978Z,43.50
2019-03-11T20:59:09.566Z,43.60
2019-03-11T21:01:41.660Z,43.40
2019-03-11T21:04:12.574Z,43.60
2019-03-11T21:06:43.238Z,43.60
2019-03-11T21:09:14.089Z,43.60
2019-03-11T21:11:45.054Z,43.20
2019-03-11T21:14:15.544Z,43.60
2019-03-11T21:16:46.117Z,43.70
2019-03-11T21:19:16.829Z,43.90
2019-03-11T21:21:47.681Z,44.00
2019-03-11T21:24:18.361Z,44.00
2019-03-11T21:26:48.937Z,44.30
2019-03-11T21:29:19.533Z,44.10
2019-03-11T21:31:50.110Z,44.30
2019-03-11T21:34:20.899Z,44.30
2019-03-11T21:36:51.537Z,44.50
2019-03-11T21:39:22.184Z,44.40
2019-03-11T21:41:52.630Z,44.60
2019-03-11T21:44:23.691Z,44.60
2019-03-11T21:46:54.345Z,44.60
2019-03-11T21:49:25.010Z,44.60
2019-03-11T21:51:55.602Z,44.60
2019-03-11T21:54:26.302Z,44.70
2019-03-11T21:56:56.970Z,44.70
2019-03-11T21:59:27.660Z,44.80
2019-03-11T22:01:58.201Z,44.80
2019-03-11T22:04:28.977Z,44.90
2019-03-11T22:06:59.589Z,45.40
2019-03-11T22:09:30.226Z,45.00
2019-03-11T22:12:00.704Z,45.00
2019-03-11T22:14:33.688Z,45.00
2019-03-11T22:17:04.213Z,45.00
2019-03-11T22:19:34.742Z,45.00
2019-03-11T22:22:05.240Z,45.10
2019-03-11T22:24:35.900Z,45.10
2019-03-11T22:27:09.505Z,44.90
2019-03-11T22:29:39.970Z,45.00
2019-03-11T22:32:10.464Z,44.90
2019-03-11T22:34:40.976Z,45.10
2019-03-11T22:37:11.452Z,45.00
2019-03-11T22:39:41.967Z,45.00
2019-03-11T22:42:12.570Z,45.10
2019-03-11T22:44:43.067Z,45.00
2019-03-11T22:47:13.521Z,45.10
2019-03-11T22:49:44.395Z,45.20
2019-03-11T22:52:14.981Z,45.10
2019-03-11T22:54:45.539Z,45.10
2019-03-11T22:57:16.088Z,45.10
2019-03-11T22:59:47.588Z,45.20
2019-03-11T23:02:18.276Z,45.20
2019-03-11T23:04:48.835Z,45.30
2019-03-11T23:07:19.346Z,45.30
2019-03-11T23:09:49.956Z,45.50
2019-03-11T23:12:20.389Z,45.40
2019-03-11T23:14:51.274Z,45.50
2019-03-11T23:17:21.712Z,45.50
2019-03-11T23:19:55.061Z,45.60
2019-03-11T23:22:28.366Z,45.60
2019-03-11T23:24:58.969Z,45.70
2019-03-11T23:27:29.734Z,45.70
2019-03-11T23:30:00.371Z,45.80
2019-03-11T23:32:30.990Z,45.90
2019-03-11T23:35:01.496Z,46.00
2019-03-11T23:37:32.917Z,46.10
2019-03-11T23:40:03.653Z,46.00
2019-03-11T23:42:34.229Z,46.10
2019-03-11T23:45:05.250Z,46.00
2019-03-11T23:47:35.793Z,46.00
2019-03-11T23:50:06.532Z,46.10
2019-03-11T23:52:37.050Z,46.20
2019-03-11T23:55:07.673Z,46.20
2019-03-11T23:57:39.107Z,46.30
